sensor_id;sensor_type;location;lat;lon;timestamp;temperature;humidity
3226;DHT22;1625;49.884;8.666;2022-08-05T00:17:22;26.90;93.80
3226;DHT22;1625;49.884;8.666;2022-08-05T00:19:48;26.90;94.40
3226;DHT22;1625;49.884;8.666;2022-08-05T00:22:13;26.80;95.00
3226;DHT22;1625;49.884;8.666;2022-08-05T00:24:39;26.80;95.60
3226;DHT22;1625;49.884;8.666;2022-08-05T00:27:05;26.80;96.20
3226;DHT22;1625;49.884;8.666;2022-08-05T00:29:30;26.70;97.00
3226;DHT22;1625;49.884;8.666;2022-08-05T00:31:56;26.60;98.30
3226;DHT22;1625;49.884;8.666;2022-08-05T00:34:22;26.60;99.50
3226;DHT22;1625;49.884;8.666;2022-08-05T00:36:47;26.60;99.90
3226;DHT22;1625;49.884;8.666;2022-08-05T00:39:13;26.50;99.90
3226;DHT22;1625;49.884;8.666;2022-08-05T00:41:38;26.40;99.90
3226;DHT22;1625;49.884;8.666;2022-08-05T00:44:04;26.50;99.90
3226;DHT22;1625;49.884;8.666;2022-08-05T00:46:30;26.50;99.90
3226;DHT22;1625;49.884;8.666;2022-08-05T00:48:55;26.50;99.90
3226;DHT22;1625;49.884;8.666;2022-08-05T00:51:21;26.40;99.90
3226;DHT22;1625;49.884;8.666;2022-08-05T00:53:48;26.30;99.90
3226;DHT22;1625;49.884;8.666;2022-08-05T00:56:15;26.30;99.90
3226;DHT22;1625;49.884;8.666;2022-08-05T00:58:41;26.30;99.90
3226;DHT22;1625;49.884;8.666;2022-08-05T01:01:06;26.30;99.90
3226;DHT22;1625;49.884;8.666;2022-08-05T01:03:32;26.30;99.90
3226;DHT22;1625;49.884;8.666;2022-08-05T01:05:57;26.30;99.90
3226;DHT22;1625;49.884;8.666;2022-08-05T01:08:23;26.40;99.90
3226;DHT22;1625;49.884;8.666;2022-08-05T01:10:55;26.40;99.90
3226;DHT22;1625;49.884;8.666;2022-08-05T01:13:58;26.40;99.90
3226;DHT22;1625;49.884;8.666;2022-08-05T01:16:40;26.40;99.90
3226;DHT22;1625;49.884;8.666;2022-08-05T01:19:38;26.40;99.90
3226;DHT22;1625;49.884;8.666;2022-08-05T01:22:15;26.40;99.90
3226;DHT22;1625;49.884;8.666;2022-08-05T01:30:17;26.50;99.90
3226;DHT22;1625;49.884;8.666;2022-08-05T01:32:46;26.50;99.90
3226;DHT22;1625;49.884;8.666;2022-08-05T01:35:18;26.60;99.90
3226;DHT22;1625;49.884;8.666;2022-08-05T01:37:51;26.60;99.90
3226;DHT22;1625;49.884;8.666;2022-08-05T01:40:19;26.60;99.90
3226;DHT22;1625;49.884;8.666;2022-08-05T01:42:46;26.60;99.90
3226;DHT22;1625;49.884;8.666;2022-08-05T01:45:14;26.60;99.90
3226;DHT22;1625;49.884;8.666;2022-08-05T01:47:41;26.60;99.90
3226;DHT22;1625;49.884;8.666;2022-08-05T01:50:12;26.60;99.90
3226;DHT22;1625;49.884;8.666;2022-08-05T01:52:40;26.60;99.90
3226;DHT22;1625;49.884;8.666;2022-08-05T01:55:08;26.70;99.90
3226;DHT22;1625;49.884;8.666;2022-08-05T01:57:40;26.60;99.90
3226;DHT22;1625;49.884;8.666;2022-08-05T02:00:07;26.60;99.90
3226;DHT22;1625;49.884;8.666;2022-08-05T02:02:37;26.50;99.90
3226;DHT22;1625;49.884;8.666;2022-08-05T02:05:06;26.60;99.90
3226;DHT22;1625;49.884;8.666;2022-08-05T02:07:33;26.60;99.90
3226;DHT22;1625;49.884;8.666;2022-08-05T02:09:59;26.60;99.90
3226;DHT22;1625;49.884;8.666;2022-08-05T02:12:42;26.60;99.90
3226;DHT22;1625;49.884;8.666;2022-08-05T02:15:18;26.60;99.90
3226;DHT22;1625;49.884;8.666;2022-08-05T02:18:00;26.60;99.90
3226;DHT22;1625;49.884;8.666;2022-08-05T02:20:31;26.60;99.90
3226;DHT22;1625;49.884;8.666;2022-08-05T02:23:00;26.60;99.90
3226;DHT22;1625;49.884;8.666;2022-08-05T02:25:35;26.50;99.90
3226;DHT22;1625;49.884;8.666;2022-08-05T02:28:04;26.60;99.90
3226;DHT22;1625;49.884;8.666;2022-08-05T02:30:37;26.50;99.90
3226;DHT22;1625;49.884;8.666;2022-08-05T02:33:04;26.50;99.90
3226;DHT22;1625;49.884;8.666;2022-08-05T02:35:31;26.50;99.90
3226;DHT22;1625;49.884;8.666;2022-08-05T02:37:58;26.50;99.90
3226;DHT22;1625;49.884;8.666;2022-08-05T02:40:25;26.50;99.90
3226;DHT22;1625;49.884;8.666;2022-08-05T02:42:52;26.50;99.90
3226;DHT22;1625;49.884;8.666;2022-08-05T02:45:19;26.50;99.90
3226;DHT22;1625;49.884;8.666;2022-08-05T02:47:45;26.50;99.90
3226;DHT22;1625;49.884;8.666;2022-08-05T02:50:13;26.50;99.90
3226;DHT22;1625;49.884;8.666;2022-08-05T02:52:40;26.40;99.90
3226;DHT22;1625;49.884;8.666;2022-08-05T02:55:07;26.40;99.90
3226;DHT22;1625;49.884;8.666;2022-08-05T02:57:34;26.50;99.90
3226;DHT22;1625;49.884;8.666;2022-08-05T03:00:03;26.40;99.90
3226;DHT22;1625;49.884;8.666;2022-08-05T03:02:33;26.40;99.90
3226;DHT22;1625;49.884;8.666;2022-08-05T03:05:01;26.40;99.90
3226;DHT22;1625;49.884;8.666;2022-08-05T03:07:27;26.30;99.90
3226;DHT22;1625;49.884;8.666;2022-08-05T03:09:53;26.20;99.90
3226;DHT22;1625;49.884;8.666;2022-08-05T03:12:35;26.20;99.90
3226;DHT22;1625;49.884;8.666;2022-08-05T03:15:03;26.20;99.90
3226;DHT22;1625;49.884;8.666;2022-08-05T03:17:29;26.20;99.90
3226;DHT22;1625;49.884;8.666;2022-08-05T03:19:55;26.10;99.90
3226;DHT22;1625;49.884;8.666;2022-08-05T03:22:20;26.10;99.90
3226;DHT22;1625;49.884;8.666;2022-08-05T03:24:47;26.10;99.90
3226;DHT22;1625;49.884;8.666;2022-08-05T03:27:13;26.00;99.90
3226;DHT22;1625;49.884;8.666;2022-08-05T03:29:39;26.00;99.90
3226;DHT22;1625;49.884;8.666;2022-08-05T03:32:08;26.00;99.90
3226;DHT22;1625;49.884;8.666;2022-08-05T03:34:35;26.00;99.90
3226;DHT22;1625;49.884;8.666;2022-08-05T03:37:01;25.90;99.90
3226;DHT22;1625;49.884;8.666;2022-08-05T03:39:27;25.90;99.90
3226;DHT22;1625;49.884;8.666;2022-08-05T03:41:54;25.80;99.90
3226;DHT22;1625;49.884;8.666;2022-08-05T03:44:20;25.80;99.90
3226;DHT22;1625;49.884;8.666;2022-08-05T03:46:45;25.70;99.90
3226;DHT22;1625;49.884;8.666;2022-08-05T03:49:11;25.70;99.90
3226;DHT22;1625;49.884;8.666;2022-08-05T03:51:59;25.60;99.90
3226;DHT22;1625;49.884;8.666;2022-08-05T03:54:32;25.60;99.90
3226;DHT22;1625;49.884;8.666;2022-08-05T03:57:00;25.50;99.90
3226;DHT22;1625;49.884;8.666;2022-08-05T03:59:54;25.20;99.90
3226;DHT22;1625;49.884;8.666;2022-08-05T04:02:25;24.90;99.90
3226;DHT22;1625;49.884;8.666;2022-08-05T04:04:56;24.80;99.90
3226;DHT22;1625;49.884;8.666;2022-08-05T04:07:22;24.80;99.90
3226;DHT22;1625;49.884;8.666;2022-08-05T04:09:49;24.70;99.90
3226;DHT22;1625;49.884;8.666;2022-08-05T04:12:14;24.60;99.90
3226;DHT22;1625;49.884;8.666;2022-08-05T04:14:44;24.60;99.90
3226;DHT22;1625;49.884;8.666;2022-08-05T04:17:09;24.50;99.90
3226;DHT22;1625;49.884;8.666;2022-08-05T04:19:44;24.40;99.90
3226;DHT22;1625;49.884;8.666;2022-08-05T04:22:10;24.40;99.90
3226;DHT22;1625;49.884;8.666;2022-08-05T04:24:38;24.40;99.90
3226;DHT22;1625;49.884;8.666;2022-08-05T04:27:03;24.30;99.90
3226;DHT22;1625;49.884;8.666;2022-08-05T04:29:29;24.30;99.90
3226;DHT22;1625;49.884;8.666;2022-08-05T04:31:54;24.20;99.90
3226;DHT22;1625;49.884;8.666;2022-08-05T04:34:20;24.20;99.90
3226;DHT22;1625;49.884;8.666;2022-08-05T04:36:45;24.10;99.90
3226;DHT22;1625;49.884;8.666;2022-08-05T04:39:11;24.10;99.90
3226;DHT22;1625;49.884;8.666;2022-08-05T04:41:36;24.10;99.90
3226;DHT22;1625;49.884;8.666;2022-08-05T04:44:02;24.10;99.90
3226;DHT22;1625;49.884;8.666;2022-08-05T04:46:27;24.10;99.90
3226;DHT22;1625;49.884;8.666;2022-08-05T04:49:02;24.10;99.90
3226;DHT22;1625;49.884;8.666;2022-08-05T04:51:27;24.10;99.90
3226;DHT22;1625;49.884;8.666;2022-08-05T04:53:53;24.10;99.90
3226;DHT22;1625;49.884;8.666;2022-08-05T04:56:18;24.10;99.90
3226;DHT22;1625;49.884;8.666;2022-08-05T04:58:44;24.00;99.90
3226;DHT22;1625;49.884;8.666;2022-08-05T05:01:09;24.20;99.90
3226;DHT22;1625;49.884;8.666;2022-08-05T05:03:35;24.20;99.90
3226;DHT22;1625;49.884;8.666;2022-08-05T05:06:00;24.20;99.90
3226;DHT22;1625;49.884;8.666;2022-08-05T05:08:26;24.20;99.90
3226;DHT22;1625;49.884;8.666;2022-08-05T05:10:51;24.20;99.90
3226;DHT22;1625;49.884;8.666;2022-08-05T05:13:17;24.10;99.90
3226;DHT22;1625;49.884;8.666;2022-08-05T05:15:44;24.10;99.90
3226;DHT22;1625;49.884;8.666;2022-08-05T05:18:12;24.20;99.90
3226;DHT22;1625;49.884;8.666;2022-08-05T05:20:41;24.20;99.90
3226;DHT22;1625;49.884;8.666;2022-08-05T05:23:07;24.20;99.90
3226;DHT22;1625;49.884;8.666;2022-08-05T05:25:32;24.30;99.90
3226;DHT22;1625;49.884;8.666;2022-08-05T05:27:58;24.30;99.90
3226;DHT22;1625;49.884;8.666;2022-08-05T05:30:23;24.30;99.90
3226;DHT22;1625;49.884;8.666;2022-08-05T05:32:49;24.30;99.90
3226;DHT22;1625;49.884;8.666;2022-08-05T05:35:15;24.40;99.90
3226;DHT22;1625;49.884;8.666;2022-08-05T05:37:54;24.40;99.90
3226;DHT22;1625;49.884;8.666;2022-08-05T05:40:21;24.50;99.90
3226;DHT22;1625;49.884;8.666;2022-08-05T05:42:48;24.50;99.90
3226;DHT22;1625;49.884;8.666;2022-08-05T05:45:14;24.50;99.90
3226;DHT22;1625;49.884;8.666;2022-08-05T05:47:40;24.50;99.90
3226;DHT22;1625;49.884;8.666;2022-08-05T05:50:07;24.50;99.90
3226;DHT22;1625;49.884;8.666;2022-08-05T05:52:33;24.60;99.90
3226;DHT22;1625;49.884;8.666;2022-08-05T05:55:02;24.50;99.90
3226;DHT22;1625;49.884;8.666;2022-08-05T05:57:28;24.60;99.90
3226;DHT22;1625;49.884;8.666;2022-08-05T05:59:54;24.40;99.90
3226;DHT22;1625;49.884;8.666;2022-08-05T06:02:19;24.50;99.90
3226;DHT22;1625;49.884;8.666;2022-08-05T06:04:45;24.60;99.90
3226;DHT22;1625;49.884;8.666;2022-08-05T06:07:10;24.70;99.90
3226;DHT22;1625;49.884;8.666;2022-08-05T06:09:36;24.60;99.90
3226;DHT22;1625;49.884;8.666;2022-08-05T06:12:01;24.70;99.90
3226;DHT22;1625;49.884;8.666;2022-08-05T06:14:28;24.80;99.90
3226;DHT22;1625;49.884;8.666;2022-08-05T06:16:53;24.80;99.90
3226;DHT22;1625;49.884;8.666;2022-08-05T06:19:19;24.90;99.90
3226;DHT22;1625;49.884;8.666;2022-08-05T06:21:44;24.90;99.90
3226;DHT22;1625;49.884;8.666;2022-08-05T06:24:11;25.00;99.90
3226;DHT22;1625;49.884;8.666;2022-08-05T06:26:36;25.10;99.90
3226;DHT22;1625;49.884;8.666;2022-08-05T06:29:02;25.10;99.90
3226;DHT22;1625;49.884;8.666;2022-08-05T06:31:28;25.20;99.90
3226;DHT22;1625;49.884;8.666;2022-08-05T06:33:53;25.30;99.90
3226;DHT22;1625;49.884;8.666;2022-08-05T06:36:19;25.40;99.90
3226;DHT22;1625;49.884;8.666;2022-08-05T06:38:44;25.50;99.90
3226;DHT22;1625;49.884;8.666;2022-08-05T06:41:10;25.50;99.90
3226;DHT22;1625;49.884;8.666;2022-08-05T06:43:36;25.50;99.90
3226;DHT22;1625;49.884;8.666;2022-08-05T06:46:01;25.50;99.90
3226;DHT22;1625;49.884;8.666;2022-08-05T06:48:27;25.50;99.90
3226;DHT22;1625;49.884;8.666;2022-08-05T06:50:53;25.50;99.90
3226;DHT22;1625;49.884;8.666;2022-08-05T06:53:19;25.70;99.90
3226;DHT22;1625;49.884;8.666;2022-08-05T06:55:44;25.60;99.90
3226;DHT22;1625;49.884;8.666;2022-08-05T06:58:10;25.60;99.90
3226;DHT22;1625;49.884;8.666;2022-08-05T07:00:35;25.50;99.90
3226;DHT22;1625;49.884;8.666;2022-08-05T07:03:01;25.50;99.90
3226;DHT22;1625;49.884;8.666;2022-08-05T07:05:26;25.40;99.90
3226;DHT22;1625;49.884;8.666;2022-08-05T07:07:52;25.40;99.90
3226;DHT22;1625;49.884;8.666;2022-08-05T07:10:18;25.40;99.90
3226;DHT22;1625;49.884;8.666;2022-08-05T07:12:45;25.30;99.90
3226;DHT22;1625;49.884;8.666;2022-08-05T07:15:29;25.20;99.90
3226;DHT22;1625;49.884;8.666;2022-08-05T07:18:13;25.20;99.90
3226;DHT22;1625;49.884;8.666;2022-08-05T07:20:38;25.20;99.90
3226;DHT22;1625;49.884;8.666;2022-08-05T07:23:05;25.00;99.90
3226;DHT22;1625;49.884;8.666;2022-08-05T07:25:31;24.90;99.90
3226;DHT22;1625;49.884;8.666;2022-08-05T07:27:56;24.60;99.90
3226;DHT22;1625;49.884;8.666;2022-08-05T07:30:22;24.50;99.90
3226;DHT22;1625;49.884;8.666;2022-08-05T07:32:48;24.50;99.90
3226;DHT22;1625;49.884;8.666;2022-08-05T07:45:35;24.30;99.90
3226;DHT22;1625;49.884;8.666;2022-08-05T07:48:01;24.30;99.90
3226;DHT22;1625;49.884;8.666;2022-08-05T07:50:27;24.30;99.90
3226;DHT22;1625;49.884;8.666;2022-08-05T07:52:53;24.30;99.90
3226;DHT22;1625;49.884;8.666;2022-08-05T07:55:18;24.20;99.90
3226;DHT22;1625;49.884;8.666;2022-08-05T07:57:44;24.10;99.90
3226;DHT22;1625;49.884;8.666;2022-08-05T08:00:13;24.10;99.90
3226;DHT22;1625;49.884;8.666;2022-08-05T08:02:39;24.10;99.90
3226;DHT22;1625;49.884;8.666;2022-08-05T08:05:05;24.20;99.90
3226;DHT22;1625;49.884;8.666;2022-08-05T08:07:31;24.10;99.90
3226;DHT22;1625;49.884;8.666;2022-08-05T08:09:57;24.10;99.90
3226;DHT22;1625;49.884;8.666;2022-08-05T08:12:22;24.20;99.90
3226;DHT22;1625;49.884;8.666;2022-08-05T08:14:48;24.20;99.90
3226;DHT22;1625;49.884;8.666;2022-08-05T08:17:14;24.20;99.90
3226;DHT22;1625;49.884;8.666;2022-08-05T08:19:40;24.30;99.90
3226;DHT22;1625;49.884;8.666;2022-08-05T08:22:06;24.30;99.90
3226;DHT22;1625;49.884;8.666;2022-08-05T08:24:32;24.30;99.90
3226;DHT22;1625;49.884;8.666;2022-08-05T08:26:59;24.30;99.90
3226;DHT22;1625;49.884;8.666;2022-08-05T08:29:24;24.40;99.90
3226;DHT22;1625;49.884;8.666;2022-08-05T08:31:53;24.40;99.90
3226;DHT22;1625;49.884;8.666;2022-08-05T08:34:24;24.40;99.90
3226;DHT22;1625;49.884;8.666;2022-08-05T08:36:50;24.40;99.90
3226;DHT22;1625;49.884;8.666;2022-08-05T08:39:16;24.50;99.90
3226;DHT22;1625;49.884;8.666;2022-08-05T08:41:46;24.50;99.90
3226;DHT22;1625;49.884;8.666;2022-08-05T08:44:14;24.60;99.90
3226;DHT22;1625;49.884;8.666;2022-08-05T08:46:40;24.70;99.90
3226;DHT22;1625;49.884;8.666;2022-08-05T08:49:07;24.70;99.90
3226;DHT22;1625;49.884;8.666;2022-08-05T08:51:43;24.80;99.90
3226;DHT22;1625;49.884;8.666;2022-08-05T08:54:10;24.90;99.90
3226;DHT22;1625;49.884;8.666;2022-08-05T08:56:39;24.90;99.90
3226;DHT22;1625;49.884;8.666;2022-08-05T08:59:05;24.90;99.90
3226;DHT22;1625;49.884;8.666;2022-08-05T09:01:32;25.00;99.90
3226;DHT22;1625;49.884;8.666;2022-08-05T09:03:58;25.10;99.90
3226;DHT22;1625;49.884;8.666;2022-08-05T09:06:28;25.20;99.90
3226;DHT22;1625;49.884;8.666;2022-08-05T09:08:55;25.20;99.90
3226;DHT22;1625;49.884;8.666;2022-08-05T09:11:21;25.20;99.90
3226;DHT22;1625;49.884;8.666;2022-08-05T09:13:47;25.20;99.90
3226;DHT22;1625;49.884;8.666;2022-08-05T09:16:13;25.20;99.90
3226;DHT22;1625;49.884;8.666;2022-08-05T09:18:39;25.20;99.90
3226;DHT22;1625;49.884;8.666;2022-08-05T09:21:05;25.20;99.90
3226;DHT22;1625;49.884;8.666;2022-08-05T09:23:30;25.30;99.90
3226;DHT22;1625;49.884;8.666;2022-08-05T09:26:12;25.30;99.90
3226;DHT22;1625;49.884;8.666;2022-08-05T09:28:40;25.40;99.90
3226;DHT22;1625;49.884;8.666;2022-08-05T09:31:11;25.40;99.90
3226;DHT22;1625;49.884;8.666;2022-08-05T09:33:47;25.40;99.90
3226;DHT22;1625;49.884;8.666;2022-08-05T09:36:14;25.40;99.90
3226;DHT22;1625;49.884;8.666;2022-08-05T09:38:58;25.50;99.90
3226;DHT22;1625;49.884;8.666;2022-08-05T09:41:24;25.70;99.90
3226;DHT22;1625;49.884;8.666;2022-08-05T09:43:50;25.80;99.90
3226;DHT22;1625;49.884;8.666;2022-08-05T09:46:30;25.90;99.90
3226;DHT22;1625;49.884;8.666;2022-08-05T09:48:57;26.10;99.90
3226;DHT22;1625;49.884;8.666;2022-08-05T09:51:35;26.20;99.90
3226;DHT22;1625;49.884;8.666;2022-08-05T09:54:03;26.30;99.90
3226;DHT22;1625;49.884;8.666;2022-08-05T09:56:32;26.30;99.90
3226;DHT22;1625;49.884;8.666;2022-08-05T09:59:04;26.30;99.90
3226;DHT22;1625;49.884;8.666;2022-08-05T10:01:31;26.40;99.90
3226;DHT22;1625;49.884;8.666;2022-08-05T10:04:02;26.30;99.90
3226;DHT22;1625;49.884;8.666;2022-08-05T10:06:29;26.20;99.90
3226;DHT22;1625;49.884;8.666;2022-08-05T10:09:09;26.20;99.90
3226;DHT22;1625;49.884;8.666;2022-08-05T10:11:34;26.20;99.90
3226;DHT22;1625;49.884;8.666;2022-08-05T10:14:23;26.10;99.90
3226;DHT22;1625;49.884;8.666;2022-08-05T10:16:49;26.10;99.90
3226;DHT22;1625;49.884;8.666;2022-08-05T10:19:15;26.10;99.90
3226;DHT22;1625;49.884;8.666;2022-08-05T10:21:41;26.20;99.90
3226;DHT22;1625;49.884;8.666;2022-08-05T10:24:08;26.30;99.90
3226;DHT22;1625;49.884;8.666;2022-08-05T10:26:40;26.40;99.90
3226;DHT22;1625;49.884;8.666;2022-08-05T10:29:07;26.40;99.90
3226;DHT22;1625;49.884;8.666;2022-08-05T10:31:33;26.40;99.90
3226;DHT22;1625;49.884;8.666;2022-08-05T10:33:58;26.50;99.90
3226;DHT22;1625;49.884;8.666;2022-08-05T10:36:24;26.70;99.90
3226;DHT22;1625;49.884;8.666;2022-08-05T10:38:51;26.80;99.90
3226;DHT22;1625;49.884;8.666;2022-08-05T10:41:50;26.90;99.90
3226;DHT22;1625;49.884;8.666;2022-08-05T10:44:18;27.00;99.90
3226;DHT22;1625;49.884;8.666;2022-08-05T10:46:52;27.00;99.90
3226;DHT22;1625;49.884;8.666;2022-08-05T10:49:19;27.00;99.90
3226;DHT22;1625;49.884;8.666;2022-08-05T10:51:46;27.00;99.90
3226;DHT22;1625;49.884;8.666;2022-08-05T10:54:13;26.90;99.90
3226;DHT22;1625;49.884;8.666;2022-08-05T10:56:47;26.90;99.90
3226;DHT22;1625;49.884;8.666;2022-08-05T10:59:31;27.00;99.90
3226;DHT22;1625;49.884;8.666;2022-08-05T11:02:08;27.00;99.90
3226;DHT22;1625;49.884;8.666;2022-08-05T11:04:46;26.90;99.90
3226;DHT22;1625;49.884;8.666;2022-08-05T11:07:13;27.00;99.90
3226;DHT22;1625;49.884;8.666;2022-08-05T11:09:51;26.90;99.90
3226;DHT22;1625;49.884;8.666;2022-08-05T11:15:16;26.70;99.90
3226;DHT22;1625;49.884;8.666;2022-08-05T11:17:46;26.40;99.90
3226;DHT22;1625;49.884;8.666;2022-08-05T11:20:38;26.40;99.90
3226;DHT22;1625;49.884;8.666;2022-08-05T11:26:09;26.50;99.90
3226;DHT22;1625;49.884;8.666;2022-08-05T11:28:36;26.60;99.90
3226;DHT22;1625;49.884;8.666;2022-08-05T11:33:32;27.00;99.90
3226;DHT22;1625;49.884;8.666;2022-08-05T11:36:05;27.10;99.90
3226;DHT22;1625;49.884;8.666;2022-08-05T11:41:26;27.40;99.90
3226;DHT22;1625;49.884;8.666;2022-08-05T11:43:57;27.50;99.90
3226;DHT22;1625;49.884;8.666;2022-08-05T11:46:31;27.30;99.90
3226;DHT22;1625;49.884;8.666;2022-08-05T11:48:58;27.30;99.90
3226;DHT22;1625;49.884;8.666;2022-08-05T11:51:25;27.40;99.90
3226;DHT22;1625;49.884;8.666;2022-08-05T11:53:51;27.50;99.90
3226;DHT22;1625;49.884;8.666;2022-08-05T11:56:18;27.50;99.90
3226;DHT22;1625;49.884;8.666;2022-08-05T11:58:45;27.50;99.90
3226;DHT22;1625;49.884;8.666;2022-08-05T12:03:45;27.70;99.90
3226;DHT22;1625;49.884;8.666;2022-08-05T12:06:13;27.70;99.90
3226;DHT22;1625;49.884;8.666;2022-08-05T12:08:51;27.60;99.90
3226;DHT22;1625;49.884;8.666;2022-08-05T12:14:03;27.80;99.90
3226;DHT22;1625;49.884;8.666;2022-08-05T12:16:37;27.90;99.90
3226;DHT22;1625;49.884;8.666;2022-08-05T12:19:04;27.80;99.90
3226;DHT22;1625;49.884;8.666;2022-08-05T12:21:32;27.80;99.90
3226;DHT22;1625;49.884;8.666;2022-08-05T12:24:06;27.70;99.90
3226;DHT22;1625;49.884;8.666;2022-08-05T12:26:35;27.80;99.90
3226;DHT22;1625;49.884;8.666;2022-08-05T12:29:02;28.00;99.90
3226;DHT22;1625;49.884;8.666;2022-08-05T12:31:27;28.10;99.90
3226;DHT22;1625;49.884;8.666;2022-08-05T12:33:55;28.30;99.90
3226;DHT22;1625;49.884;8.666;2022-08-05T12:36:21;28.40;99.90
3226;DHT22;1625;49.884;8.666;2022-08-05T12:38:47;28.40;99.90
3226;DHT22;1625;49.884;8.666;2022-08-05T12:41:14;28.30;99.90
3226;DHT22;1625;49.884;8.666;2022-08-05T12:43:55;28.40;99.90
3226;DHT22;1625;49.884;8.666;2022-08-05T12:46:24;28.30;99.90
3226;DHT22;1625;49.884;8.666;2022-08-05T12:49:03;28.20;99.90
3226;DHT22;1625;49.884;8.666;2022-08-05T12:51:30;28.10;99.90
3226;DHT22;1625;49.884;8.666;2022-08-05T12:54:03;28.20;99.90
3226;DHT22;1625;49.884;8.666;2022-08-05T12:56:29;28.10;99.90
3226;DHT22;1625;49.884;8.666;2022-08-05T12:59:16;27.90;99.90
3226;DHT22;1625;49.884;8.666;2022-08-05T13:01:44;27.80;99.90
3226;DHT22;1625;49.884;8.666;2022-08-05T13:04:10;28.00;99.90
3226;DHT22;1625;49.884;8.666;2022-08-05T13:06:39;28.30;99.90
3226;DHT22;1625;49.884;8.666;2022-08-05T13:09:06;28.60;99.90
3226;DHT22;1625;49.884;8.666;2022-08-05T13:11:32;28.60;99.90
3226;DHT22;1625;49.884;8.666;2022-08-05T13:13:57;28.60;99.90
3226;DHT22;1625;49.884;8.666;2022-08-05T13:16:23;28.50;99.90
3226;DHT22;1625;49.884;8.666;2022-08-05T13:18:53;28.40;99.90
3226;DHT22;1625;49.884;8.666;2022-08-05T13:21:19;28.30;99.90
3226;DHT22;1625;49.884;8.666;2022-08-05T13:23:44;28.10;99.90
3226;DHT22;1625;49.884;8.666;2022-08-05T13:26:10;28.00;99.90
3226;DHT22;1625;49.884;8.666;2022-08-05T13:28:35;27.80;99.90
3226;DHT22;1625;49.884;8.666;2022-08-05T13:31:01;27.70;99.90
3226;DHT22;1625;49.884;8.666;2022-08-05T13:33:26;27.60;99.90
3226;DHT22;1625;49.884;8.666;2022-08-05T13:35:52;27.70;99.90
3226;DHT22;1625;49.884;8.666;2022-08-05T13:38:18;27.80;99.90
3226;DHT22;1625;49.884;8.666;2022-08-05T13:40:44;28.00;99.90
3226;DHT22;1625;49.884;8.666;2022-08-05T13:43:10;28.20;99.90
3226;DHT22;1625;49.884;8.666;2022-08-05T13:54:20;28.60;99.90
3226;DHT22;1625;49.884;8.666;2022-08-05T13:57:02;28.80;99.90
3226;DHT22;1625;49.884;8.666;2022-08-05T13:59:37;28.90;99.90
3226;DHT22;1625;49.884;8.666;2022-08-05T14:02:04;29.10;99.90
3226;DHT22;1625;49.884;8.666;2022-08-05T14:04:35;29.10;99.90
3226;DHT22;1625;49.884;8.666;2022-08-05T14:07:22;29.00;99.90
3226;DHT22;1625;49.884;8.666;2022-08-05T14:09:48;29.10;99.90
3226;DHT22;1625;49.884;8.666;2022-08-05T14:12:13;28.80;99.90
3226;DHT22;1625;49.884;8.666;2022-08-05T14:14:40;28.40;99.90
3226;DHT22;1625;49.884;8.666;2022-08-05T14:17:09;28.20;99.90
3226;DHT22;1625;49.884;8.666;2022-08-05T14:19:34;28.00;99.90
3226;DHT22;1625;49.884;8.666;2022-08-05T14:22:00;27.90;99.90
3226;DHT22;1625;49.884;8.666;2022-08-05T14:45:56;26.90;99.90
3226;DHT22;1625;49.884;8.666;2022-08-05T14:48:41;26.70;99.90
3226;DHT22;1625;49.884;8.666;2022-08-05T14:52:02;28.50;99.90
3226;DHT22;1625;49.884;8.666;2022-08-05T14:57:03;28.20;99.90
3226;DHT22;1625;49.884;8.666;2022-08-05T15:02:34;26.70;99.90
